sensor_id;sensor_type;location;lat;lon;timestamp;P1;durP1;ratioP1;P2;durP2;ratioP2
31382;SDS011;18014;49.228;11.102;2023-02-11T00:00:56;73.13;;;39.37;;
31382;SDS011;18014;49.228;11.102;2023-02-11T00:02:56;68.40;;;39.45;;
31382;SDS011;18014;49.228;11.102;2023-02-11T00:04:58;70.55;;;38.95;;
31382;SDS011;18014;49.228;11.102;2023-02-11T00:07:00;71.75;;;38.65;;
31382;SDS011;18014;49.228;11.102;2023-02-11T00:09:02;64.95;;;37.50;;
31382;SDS011;18014;49.228;11.102;2023-02-11T00:11:03;71.80;;;39.00;;
31382;SDS011;18014;49.228;11.102;2023-02-11T00:13:04;73.00;;;39.25;;
31382;SDS011;18014;49.228;11.102;2023-02-11T00:15:06;71.03;;;40.53;;
31382;SDS011;18014;49.228;11.102;2023-02-11T00:17:08;70.10;;;39.72;;
31382;SDS011;18014;49.228;11.102;2023-02-11T00:19:08;73.65;;;39.65;;
31382;SDS011;18014;49.228;11.102;2023-02-11T00:21:11;67.82;;;38.97;;
31382;SDS011;18014;49.228;11.102;2023-02-11T00:23:13;73.35;;;40.88;;
31382;SDS011;18014;49.228;11.102;2023-02-11T00:25:14;69.20;;;40.25;;
31382;SDS011;18014;49.228;11.102;2023-02-11T00:27:15;64.60;;;38.40;;
31382;SDS011;18014;49.228;11.102;2023-02-11T00:29:16;63.97;;;36.88;;
31382;SDS011;18014;49.228;11.102;2023-02-11T00:31:18;67.90;;;39.10;;
31382;SDS011;18014;49.228;11.102;2023-02-11T00:33:20;71.63;;;39.38;;
31382;SDS011;18014;49.228;11.102;2023-02-11T00:35:21;65.22;;;37.25;;
31382;SDS011;18014;49.228;11.102;2023-02-11T00:37:22;68.68;;;37.80;;
31382;SDS011;18014;49.228;11.102;2023-02-11T00:39:23;69.43;;;38.20;;
31382;SDS011;18014;49.228;11.102;2023-02-11T00:41:24;65.50;;;36.70;;
31382;SDS011;18014;49.228;11.102;2023-02-11T00:43:26;69.03;;;37.72;;
31382;SDS011;18014;49.228;11.102;2023-02-11T00:45:27;75.18;;;40.40;;
31382;SDS011;18014;49.228;11.102;2023-02-11T00:47:29;68.30;;;37.88;;
31382;SDS011;18014;49.228;11.102;2023-02-11T00:49:30;70.85;;;38.25;;
31382;SDS011;18014;49.228;11.102;2023-02-11T00:51:31;67.70;;;38.00;;
31382;SDS011;18014;49.228;11.102;2023-02-11T00:53:32;64.38;;;36.20;;
31382;SDS011;18014;49.228;11.102;2023-02-11T00:55:34;68.55;;;38.25;;
31382;SDS011;18014;49.228;11.102;2023-02-11T00:57:35;65.40;;;34.78;;
31382;SDS011;18014;49.228;11.102;2023-02-11T00:59:36;65.25;;;37.90;;
31382;SDS011;18014;49.228;11.102;2023-02-11T01:01:37;67.93;;;38.22;;
31382;SDS011;18014;49.228;11.102;2023-02-11T01:03:38;68.93;;;38.60;;
31382;SDS011;18014;49.228;11.102;2023-02-11T01:05:40;71.03;;;40.33;;
31382;SDS011;18014;49.228;11.102;2023-02-11T01:07:41;74.95;;;36.65;;
31382;SDS011;18014;49.228;11.102;2023-02-11T01:09:42;68.90;;;39.85;;
31382;SDS011;18014;49.228;11.102;2023-02-11T01:11:43;61.47;;;35.50;;
31382;SDS011;18014;49.228;11.102;2023-02-11T01:13:44;74.55;;;38.22;;
31382;SDS011;18014;49.228;11.102;2023-02-11T01:15:46;64.22;;;37.05;;
31382;SDS011;18014;49.228;11.102;2023-02-11T01:17:47;68.28;;;37.53;;
31382;SDS011;18014;49.228;11.102;2023-02-11T01:19:48;67.95;;;38.65;;
31382;SDS011;18014;49.228;11.102;2023-02-11T01:21:49;62.85;;;35.65;;
31382;SDS011;18014;49.228;11.102;2023-02-11T01:23:50;66.03;;;37.88;;
31382;SDS011;18014;49.228;11.102;2023-02-11T01:25:51;65.13;;;36.72;;
31382;SDS011;18014;49.228;11.102;2023-02-11T01:27:53;71.03;;;39.53;;
31382;SDS011;18014;49.228;11.102;2023-02-11T01:29:54;64.32;;;36.65;;
31382;SDS011;18014;49.228;11.102;2023-02-11T01:31:55;63.33;;;37.03;;
31382;SDS011;18014;49.228;11.102;2023-02-11T01:33:56;64.43;;;38.15;;
31382;SDS011;18014;49.228;11.102;2023-02-11T01:36:03;63.67;;;36.15;;
31382;SDS011;18014;49.228;11.102;2023-02-11T01:38:05;72.57;;;38.25;;
31382;SDS011;18014;49.228;11.102;2023-02-11T01:40:11;68.63;;;39.13;;
31382;SDS011;18014;49.228;11.102;2023-02-11T01:42:14;72.38;;;38.50;;
31382;SDS011;18014;49.228;11.102;2023-02-11T01:44:27;65.18;;;36.05;;
31382;SDS011;18014;49.228;11.102;2023-02-11T01:46:36;66.30;;;36.97;;
31382;SDS011;18014;49.228;11.102;2023-02-11T01:48:38;68.95;;;36.85;;
31382;SDS011;18014;49.228;11.102;2023-02-11T01:50:42;65.43;;;36.05;;
31382;SDS011;18014;49.228;11.102;2023-02-11T01:52:46;64.30;;;36.10;;
31382;SDS011;18014;49.228;11.102;2023-02-11T01:54:49;64.32;;;35.15;;
31382;SDS011;18014;49.228;11.102;2023-02-11T01:59:32;65.55;;;34.13;;
31382;SDS011;18014;49.228;11.102;2023-02-11T02:01:46;63.83;;;33.70;;
31382;SDS011;18014;49.228;11.102;2023-02-11T02:03:52;69.35;;;37.25;;
31382;SDS011;18014;49.228;11.102;2023-02-11T02:06:00;71.30;;;36.50;;
31382;SDS011;18014;49.228;11.102;2023-02-11T02:08:27;66.80;;;37.45;;
31382;SDS011;18014;49.228;11.102;2023-02-11T02:10:35;64.80;;;36.65;;
31382;SDS011;18014;49.228;11.102;2023-02-11T02:12:39;65.68;;;37.20;;
31382;SDS011;18014;49.228;11.102;2023-02-11T02:14:40;64.03;;;37.45;;
31382;SDS011;18014;49.228;11.102;2023-02-11T02:16:41;61.53;;;34.92;;
31382;SDS011;18014;49.228;11.102;2023-02-11T02:21:44;62.80;;;36.10;;
31382;SDS011;18014;49.228;11.102;2023-02-11T02:25:50;66.03;;;36.80;;
31382;SDS011;18014;49.228;11.102;2023-02-11T02:30:45;69.45;;;36.97;;
31382;SDS011;18014;49.228;11.102;2023-02-11T02:33:20;61.08;;;33.58;;
31382;SDS011;18014;49.228;11.102;2023-02-11T02:35:39;69.38;;;37.42;;
31382;SDS011;18014;49.228;11.102;2023-02-11T02:37:46;65.45;;;36.03;;
31382;SDS011;18014;49.228;11.102;2023-02-11T02:40:24;64.10;;;34.75;;
31382;SDS011;18014;49.228;11.102;2023-02-11T02:42:30;69.55;;;37.45;;
31382;SDS011;18014;49.228;11.102;2023-02-11T02:44:32;69.65;;;36.20;;
31382;SDS011;18014;49.228;11.102;2023-02-11T02:46:33;71.35;;;37.08;;
31382;SDS011;18014;49.228;11.102;2023-02-11T02:48:35;65.50;;;37.72;;
31382;SDS011;18014;49.228;11.102;2023-02-11T02:50:36;61.33;;;35.67;;
31382;SDS011;18014;49.228;11.102;2023-02-11T02:53:00;66.75;;;37.75;;
31382;SDS011;18014;49.228;11.102;2023-02-11T02:55:29;48.73;;;27.73;;
31382;SDS011;18014;49.228;11.102;2023-02-11T03:06:45;61.92;;;33.50;;
31382;SDS011;18014;49.228;11.102;2023-02-11T03:11:40;61.17;;;32.78;;
31382;SDS011;18014;49.228;11.102;2023-02-11T03:13:41;55.08;;;30.88;;
31382;SDS011;18014;49.228;11.102;2023-02-11T03:15:44;67.88;;;35.55;;
31382;SDS011;18014;49.228;11.102;2023-02-11T03:17:48;64.32;;;35.97;;
31382;SDS011;18014;49.228;11.102;2023-02-11T03:19:52;71.07;;;38.75;;
31382;SDS011;18014;49.228;11.102;2023-02-11T03:21:54;67.70;;;36.30;;
31382;SDS011;18014;49.228;11.102;2023-02-11T03:23:57;64.25;;;38.50;;
31382;SDS011;18014;49.228;11.102;2023-02-11T03:26:04;66.97;;;37.53;;
31382;SDS011;18014;49.228;11.102;2023-02-11T03:28:30;64.28;;;35.92;;
31382;SDS011;18014;49.228;11.102;2023-02-11T03:30:54;64.10;;;35.90;;
31382;SDS011;18014;49.228;11.102;2023-02-11T03:33:07;63.72;;;35.90;;
31382;SDS011;18014;49.228;11.102;2023-02-11T03:35:22;65.63;;;36.10;;
31382;SDS011;18014;49.228;11.102;2023-02-11T03:40:10;60.40;;;31.95;;
31382;SDS011;18014;49.228;11.102;2023-02-11T03:42:14;59.53;;;32.95;;
31382;SDS011;18014;49.228;11.102;2023-02-11T03:44:16;58.17;;;33.55;;
31382;SDS011;18014;49.228;11.102;2023-02-11T03:46:20;58.30;;;34.20;;
31382;SDS011;18014;49.228;11.102;2023-02-11T03:48:39;61.88;;;32.90;;
31382;SDS011;18014;49.228;11.102;2023-02-11T03:50:42;59.00;;;33.40;;
31382;SDS011;18014;49.228;11.102;2023-02-11T03:52:45;61.30;;;33.47;;
31382;SDS011;18014;49.228;11.102;2023-02-11T03:54:50;57.90;;;33.15;;
31382;SDS011;18014;49.228;11.102;2023-02-11T03:56:56;57.55;;;33.17;;
31382;SDS011;18014;49.228;11.102;2023-02-11T03:58:58;60.03;;;34.38;;
31382;SDS011;18014;49.228;11.102;2023-02-11T04:01:00;59.60;;;32.22;;
31382;SDS011;18014;49.228;11.102;2023-02-11T04:03:02;60.03;;;33.22;;
31382;SDS011;18014;49.228;11.102;2023-02-11T04:05:04;56.10;;;31.73;;
31382;SDS011;18014;49.228;11.102;2023-02-11T04:07:06;53.58;;;30.27;;
31382;SDS011;18014;49.228;11.102;2023-02-11T04:09:08;56.43;;;30.07;;
31382;SDS011;18014;49.228;11.102;2023-02-11T04:11:09;54.90;;;31.15;;
31382;SDS011;18014;49.228;11.102;2023-02-11T04:13:10;57.63;;;30.73;;
31382;SDS011;18014;49.228;11.102;2023-02-11T04:15:11;52.80;;;31.98;;
31382;SDS011;18014;49.228;11.102;2023-02-11T04:17:12;51.80;;;29.85;;
31382;SDS011;18014;49.228;11.102;2023-02-11T04:19:13;55.28;;;30.92;;
31382;SDS011;18014;49.228;11.102;2023-02-11T04:21:14;52.17;;;29.58;;
31382;SDS011;18014;49.228;11.102;2023-02-11T04:23:15;51.85;;;29.77;;
31382;SDS011;18014;49.228;11.102;2023-02-11T04:25:16;53.00;;;29.92;;
31382;SDS011;18014;49.228;11.102;2023-02-11T04:27:17;52.47;;;29.40;;
31382;SDS011;18014;49.228;11.102;2023-02-11T04:29:18;49.20;;;27.85;;
31382;SDS011;18014;49.228;11.102;2023-02-11T04:31:19;48.03;;;27.85;;
31382;SDS011;18014;49.228;11.102;2023-02-11T04:33:20;50.63;;;28.60;;
31382;SDS011;18014;49.228;11.102;2023-02-11T04:35:21;50.58;;;28.80;;
31382;SDS011;18014;49.228;11.102;2023-02-11T04:37:22;51.55;;;27.98;;
31382;SDS011;18014;49.228;11.102;2023-02-11T04:39:23;44.20;;;26.50;;
31382;SDS011;18014;49.228;11.102;2023-02-11T04:41:24;44.72;;;26.48;;
31382;SDS011;18014;49.228;11.102;2023-02-11T04:43:25;47.45;;;26.35;;
31382;SDS011;18014;49.228;11.102;2023-02-11T04:45:26;43.80;;;25.30;;
31382;SDS011;18014;49.228;11.102;2023-02-11T04:47:27;42.45;;;24.88;;
31382;SDS011;18014;49.228;11.102;2023-02-11T04:49:28;45.35;;;25.90;;
31382;SDS011;18014;49.228;11.102;2023-02-11T04:51:29;45.72;;;26.83;;
31382;SDS011;18014;49.228;11.102;2023-02-11T04:53:31;41.80;;;23.80;;
31382;SDS011;18014;49.228;11.102;2023-02-11T04:55:32;47.58;;;26.83;;
31382;SDS011;18014;49.228;11.102;2023-02-11T04:57:33;46.13;;;26.70;;
31382;SDS011;18014;49.228;11.102;2023-02-11T04:59:34;42.70;;;24.98;;
31382;SDS011;18014;49.228;11.102;2023-02-11T05:01:35;43.15;;;24.77;;
31382;SDS011;18014;49.228;11.102;2023-02-11T05:03:37;42.08;;;24.40;;
31382;SDS011;18014;49.228;11.102;2023-02-11T05:05:39;45.17;;;25.10;;
31382;SDS011;18014;49.228;11.102;2023-02-11T05:09:42;42.03;;;23.63;;
31382;SDS011;18014;49.228;11.102;2023-02-11T05:11:43;36.88;;;23.02;;
31382;SDS011;18014;49.228;11.102;2023-02-11T05:13:44;42.38;;;25.30;;
31382;SDS011;18014;49.228;11.102;2023-02-11T05:15:45;41.80;;;23.30;;
31382;SDS011;18014;49.228;11.102;2023-02-11T05:17:46;42.22;;;24.35;;
31382;SDS011;18014;49.228;11.102;2023-02-11T05:19:47;43.00;;;26.17;;
31382;SDS011;18014;49.228;11.102;2023-02-11T05:21:48;40.75;;;23.95;;
31382;SDS011;18014;49.228;11.102;2023-02-11T05:23:49;42.13;;;24.23;;
31382;SDS011;18014;49.228;11.102;2023-02-11T05:25:50;38.40;;;21.30;;
31382;SDS011;18014;49.228;11.102;2023-02-11T05:27:51;37.95;;;23.13;;
31382;SDS011;18014;49.228;11.102;2023-02-11T05:29:52;38.88;;;23.00;;
31382;SDS011;18014;49.228;11.102;2023-02-11T05:31:53;39.75;;;23.33;;
31382;SDS011;18014;49.228;11.102;2023-02-11T05:33:54;40.42;;;23.38;;
31382;SDS011;18014;49.228;11.102;2023-02-11T05:35:58;39.47;;;22.05;;
31382;SDS011;18014;49.228;11.102;2023-02-11T05:38:07;39.63;;;22.58;;
31382;SDS011;18014;49.228;11.102;2023-02-11T05:40:08;40.20;;;23.45;;
31382;SDS011;18014;49.228;11.102;2023-02-11T05:42:09;37.60;;;22.42;;
31382;SDS011;18014;49.228;11.102;2023-02-11T05:44:10;40.08;;;24.00;;
31382;SDS011;18014;49.228;11.102;2023-02-11T05:46:11;34.88;;;21.45;;
31382;SDS011;18014;49.228;11.102;2023-02-11T05:48:12;39.92;;;21.55;;
31382;SDS011;18014;49.228;11.102;2023-02-11T05:50:13;33.97;;;21.75;;
31382;SDS011;18014;49.228;11.102;2023-02-11T05:52:14;33.60;;;20.15;;
31382;SDS011;18014;49.228;11.102;2023-02-11T05:54:15;32.72;;;20.00;;
31382;SDS011;18014;49.228;11.102;2023-02-11T05:56:16;33.00;;;18.92;;
31382;SDS011;18014;49.228;11.102;2023-02-11T05:58:17;37.13;;;20.50;;
31382;SDS011;18014;49.228;11.102;2023-02-11T06:00:18;32.67;;;20.20;;
31382;SDS011;18014;49.228;11.102;2023-02-11T06:02:19;37.30;;;20.42;;
31382;SDS011;18014;49.228;11.102;2023-02-11T06:04:20;31.75;;;19.83;;
31382;SDS011;18014;49.228;11.102;2023-02-11T06:06:21;31.95;;;20.15;;
31382;SDS011;18014;49.228;11.102;2023-02-11T06:08:22;34.15;;;20.88;;
31382;SDS011;18014;49.228;11.102;2023-02-11T06:10:24;28.23;;;19.05;;
31382;SDS011;18014;49.228;11.102;2023-02-11T06:12:25;35.90;;;20.08;;
31382;SDS011;18014;49.228;11.102;2023-02-11T06:14:26;33.35;;;20.48;;
31382;SDS011;18014;49.228;11.102;2023-02-11T06:16:27;29.92;;;18.63;;
31382;SDS011;18014;49.228;11.102;2023-02-11T06:18:28;32.45;;;20.17;;
31382;SDS011;18014;49.228;11.102;2023-02-11T06:20:29;33.65;;;20.15;;
31382;SDS011;18014;49.228;11.102;2023-02-11T06:22:30;33.55;;;20.35;;
31382;SDS011;18014;49.228;11.102;2023-02-11T06:24:31;31.92;;;20.23;;
31382;SDS011;18014;49.228;11.102;2023-02-11T06:26:32;33.65;;;20.85;;
31382;SDS011;18014;49.228;11.102;2023-02-11T06:28:33;35.75;;;21.10;;
31382;SDS011;18014;49.228;11.102;2023-02-11T06:30:35;30.98;;;19.48;;
31382;SDS011;18014;49.228;11.102;2023-02-11T06:32:37;32.80;;;19.58;;
31382;SDS011;18014;49.228;11.102;2023-02-11T06:34:38;35.75;;;20.10;;
31382;SDS011;18014;49.228;11.102;2023-02-11T06:36:39;32.47;;;20.25;;
31382;SDS011;18014;49.228;11.102;2023-02-11T06:38:40;30.67;;;18.75;;
31382;SDS011;18014;49.228;11.102;2023-02-11T06:40:45;34.33;;;20.65;;
31382;SDS011;18014;49.228;11.102;2023-02-11T06:42:47;35.67;;;22.48;;
31382;SDS011;18014;49.228;11.102;2023-02-11T06:44:48;34.22;;;19.67;;
31382;SDS011;18014;49.228;11.102;2023-02-11T06:46:49;34.28;;;19.88;;
31382;SDS011;18014;49.228;11.102;2023-02-11T06:48:50;32.25;;;20.05;;
31382;SDS011;18014;49.228;11.102;2023-02-11T06:50:51;34.75;;;20.10;;
31382;SDS011;18014;49.228;11.102;2023-02-11T06:52:52;32.08;;;19.67;;
31382;SDS011;18014;49.228;11.102;2023-02-11T06:54:53;30.80;;;19.08;;
31382;SDS011;18014;49.228;11.102;2023-02-11T06:56:54;31.35;;;18.55;;
31382;SDS011;18014;49.228;11.102;2023-02-11T06:58:55;32.58;;;19.38;;
31382;SDS011;18014;49.228;11.102;2023-02-11T07:00:57;32.83;;;19.50;;
31382;SDS011;18014;49.228;11.102;2023-02-11T07:02:58;31.70;;;18.90;;
31382;SDS011;18014;49.228;11.102;2023-02-11T07:04:59;31.40;;;20.33;;
31382;SDS011;18014;49.228;11.102;2023-02-11T07:06:59;32.20;;;19.70;;
31382;SDS011;18014;49.228;11.102;2023-02-11T07:09:00;33.72;;;20.08;;
31382;SDS011;18014;49.228;11.102;2023-02-11T07:11:12;28.90;;;19.48;;
31382;SDS011;18014;49.228;11.102;2023-02-11T07:13:17;30.73;;;18.65;;
31382;SDS011;18014;49.228;11.102;2023-02-11T07:15:19;33.67;;;19.65;;
31382;SDS011;18014;49.228;11.102;2023-02-11T07:17:20;29.50;;;18.67;;
31382;SDS011;18014;49.228;11.102;2023-02-11T07:19:20;32.30;;;19.73;;
31382;SDS011;18014;49.228;11.102;2023-02-11T07:21:21;34.22;;;20.42;;
31382;SDS011;18014;49.228;11.102;2023-02-11T07:23:23;33.22;;;20.90;;
31382;SDS011;18014;49.228;11.102;2023-02-11T07:25:24;33.22;;;20.52;;
31382;SDS011;18014;49.228;11.102;2023-02-11T07:27:25;27.60;;;18.17;;
31382;SDS011;18014;49.228;11.102;2023-02-11T07:29:26;30.90;;;19.15;;
31382;SDS011;18014;49.228;11.102;2023-02-11T07:31:27;26.05;;;18.10;;
31382;SDS011;18014;49.228;11.102;2023-02-11T07:33:29;32.47;;;19.05;;
31382;SDS011;18014;49.228;11.102;2023-02-11T07:35:30;33.85;;;19.73;;
31382;SDS011;18014;49.228;11.102;2023-02-11T07:37:35;28.38;;;19.27;;
31382;SDS011;18014;49.228;11.102;2023-02-11T07:39:36;30.63;;;19.55;;
31382;SDS011;18014;49.228;11.102;2023-02-11T07:41:37;30.55;;;18.95;;
31382;SDS011;18014;49.228;11.102;2023-02-11T07:43:38;31.17;;;19.20;;
31382;SDS011;18014;49.228;11.102;2023-02-11T07:45:39;31.17;;;19.55;;
31382;SDS011;18014;49.228;11.102;2023-02-11T07:47:41;29.90;;;18.45;;
31382;SDS011;18014;49.228;11.102;2023-02-11T07:49:42;26.80;;;17.92;;
31382;SDS011;18014;49.228;11.102;2023-02-11T07:51:44;28.58;;;18.25;;
31382;SDS011;18014;49.228;11.102;2023-02-11T07:53:46;29.60;;;18.13;;
31382;SDS011;18014;49.228;11.102;2023-02-11T07:55:47;29.25;;;18.40;;
31382;SDS011;18014;49.228;11.102;2023-02-11T07:57:48;32.22;;;18.85;;
31382;SDS011;18014;49.228;11.102;2023-02-11T07:59:49;30.40;;;18.15;;
31382;SDS011;18014;49.228;11.102;2023-02-11T08:01:51;27.23;;;17.07;;
31382;SDS011;18014;49.228;11.102;2023-02-11T08:03:53;30.10;;;19.33;;
31382;SDS011;18014;49.228;11.102;2023-02-11T08:05:55;30.92;;;19.73;;
31382;SDS011;18014;49.228;11.102;2023-02-11T08:07:56;31.88;;;19.42;;
31382;SDS011;18014;49.228;11.102;2023-02-11T08:09:57;29.95;;;18.58;;
31382;SDS011;18014;49.228;11.102;2023-02-11T08:11:58;27.67;;;18.27;;
31382;SDS011;18014;49.228;11.102;2023-02-11T08:14:00;28.77;;;19.38;;
31382;SDS011;18014;49.228;11.102;2023-02-11T08:16:01;29.80;;;17.38;;
31382;SDS011;18014;49.228;11.102;2023-02-11T08:18:03;29.75;;;19.58;;
31382;SDS011;18014;49.228;11.102;2023-02-11T08:20:04;30.33;;;18.73;;
31382;SDS011;18014;49.228;11.102;2023-02-11T08:22:05;30.75;;;18.63;;
31382;SDS011;18014;49.228;11.102;2023-02-11T08:24:07;28.05;;;18.58;;
31382;SDS011;18014;49.228;11.102;2023-02-11T08:26:09;30.92;;;19.60;;
31382;SDS011;18014;49.228;11.102;2023-02-11T08:28:11;29.58;;;19.70;;
31382;SDS011;18014;49.228;11.102;2023-02-11T08:30:12;28.77;;;18.33;;
31382;SDS011;18014;49.228;11.102;2023-02-11T08:32:13;26.55;;;17.17;;
31382;SDS011;18014;49.228;11.102;2023-02-11T08:34:15;25.73;;;17.67;;
31382;SDS011;18014;49.228;11.102;2023-02-11T08:36:20;28.00;;;17.98;;
31382;SDS011;18014;49.228;11.102;2023-02-11T08:38:22;26.33;;;16.98;;
31382;SDS011;18014;49.228;11.102;2023-02-11T08:40:23;29.20;;;17.65;;
31382;SDS011;18014;49.228;11.102;2023-02-11T08:42:24;26.63;;;18.48;;
31382;SDS011;18014;49.228;11.102;2023-02-11T08:44:25;24.40;;;16.98;;
31382;SDS011;18014;49.228;11.102;2023-02-11T08:46:26;25.75;;;17.02;;
31382;SDS011;18014;49.228;11.102;2023-02-11T08:48:27;26.92;;;17.67;;
31382;SDS011;18014;49.228;11.102;2023-02-11T08:50:28;22.45;;;15.85;;
31382;SDS011;18014;49.228;11.102;2023-02-11T08:52:31;25.33;;;17.00;;
31382;SDS011;18014;49.228;11.102;2023-02-11T08:54:32;26.17;;;16.60;;
31382;SDS011;18014;49.228;11.102;2023-02-11T08:56:33;22.77;;;15.77;;
31382;SDS011;18014;49.228;11.102;2023-02-11T08:58:35;23.70;;;16.50;;
31382;SDS011;18014;49.228;11.102;2023-02-11T09:00:36;28.45;;;17.48;;
31382;SDS011;18014;49.228;11.102;2023-02-11T09:02:37;24.40;;;16.92;;
31382;SDS011;18014;49.228;11.102;2023-02-11T09:04:38;26.75;;;15.75;;
31382;SDS011;18014;49.228;11.102;2023-02-11T09:06:40;22.25;;;16.00;;
31382;SDS011;18014;49.228;11.102;2023-02-11T09:08:42;21.90;;;14.88;;
31382;SDS011;18014;49.228;11.102;2023-02-11T09:10:44;22.67;;;15.60;;
31382;SDS011;18014;49.228;11.102;2023-02-11T09:12:46;20.38;;;14.82;;
31382;SDS011;18014;49.228;11.102;2023-02-11T09:14:47;24.48;;;17.00;;
31382;SDS011;18014;49.228;11.102;2023-02-11T09:16:48;21.48;;;15.77;;
31382;SDS011;18014;49.228;11.102;2023-02-11T09:18:50;20.55;;;15.68;;
31382;SDS011;18014;49.228;11.102;2023-02-11T09:20:51;21.05;;;15.70;;
31382;SDS011;18014;49.228;11.102;2023-02-11T09:22:53;19.83;;;15.35;;
31382;SDS011;18014;49.228;11.102;2023-02-11T09:24:56;22.85;;;16.52;;
31382;SDS011;18014;49.228;11.102;2023-02-11T09:26:57;23.20;;;15.75;;
31382;SDS011;18014;49.228;11.102;2023-02-11T09:28:59;21.88;;;15.23;;
31382;SDS011;18014;49.228;11.102;2023-02-11T09:31:04;19.57;;;14.87;;
31382;SDS011;18014;49.228;11.102;2023-02-11T09:33:07;21.15;;;15.05;;
31382;SDS011;18014;49.228;11.102;2023-02-11T09:35:08;23.67;;;15.73;;
31382;SDS011;18014;49.228;11.102;2023-02-11T09:37:09;22.27;;;14.70;;
31382;SDS011;18014;49.228;11.102;2023-02-11T09:39:16;23.80;;;15.82;;
31382;SDS011;18014;49.228;11.102;2023-02-11T09:43:32;22.70;;;15.30;;
31382;SDS011;18014;49.228;11.102;2023-02-11T09:45:41;21.70;;;15.32;;
31382;SDS011;18014;49.228;11.102;2023-02-11T09:50:05;21.70;;;15.48;;
31382;SDS011;18014;49.228;11.102;2023-02-11T09:54:36;22.35;;;15.60;;
31382;SDS011;18014;49.228;11.102;2023-02-11T09:56:47;21.83;;;15.40;;
31382;SDS011;18014;49.228;11.102;2023-02-11T09:58:48;21.25;;;14.40;;
31382;SDS011;18014;49.228;11.102;2023-02-11T10:10:27;20.20;;;15.00;;
31382;SDS011;18014;49.228;11.102;2023-02-11T10:12:49;18.48;;;13.98;;
31382;SDS011;18014;49.228;11.102;2023-02-11T10:19:53;17.55;;;13.63;;
31382;SDS011;18014;49.228;11.102;2023-02-11T10:21:58;17.55;;;13.57;;
31382;SDS011;18014;49.228;11.102;2023-02-11T10:24:15;17.65;;;12.90;;
31382;SDS011;18014;49.228;11.102;2023-02-11T10:26:18;18.92;;;14.07;;
31382;SDS011;18014;49.228;11.102;2023-02-11T10:28:20;19.63;;;14.40;;
31382;SDS011;18014;49.228;11.102;2023-02-11T10:30:31;19.15;;;13.88;;
31382;SDS011;18014;49.228;11.102;2023-02-11T10:32:38;18.83;;;13.32;;
31382;SDS011;18014;49.228;11.102;2023-02-11T10:34:55;19.58;;;15.10;;
31382;SDS011;18014;49.228;11.102;2023-02-11T10:36:59;17.83;;;14.18;;
31382;SDS011;18014;49.228;11.102;2023-02-11T10:39:01;20.85;;;14.50;;
31382;SDS011;18014;49.228;11.102;2023-02-11T10:41:16;18.45;;;14.80;;
31382;SDS011;18014;49.228;11.102;2023-02-11T10:43:25;19.17;;;15.10;;
31382;SDS011;18014;49.228;11.102;2023-02-11T10:45:32;21.70;;;15.77;;
31382;SDS011;18014;49.228;11.102;2023-02-11T10:47:34;19.50;;;14.48;;
31382;SDS011;18014;49.228;11.102;2023-02-11T10:49:38;18.27;;;13.65;;
31382;SDS011;18014;49.228;11.102;2023-02-11T10:51:40;16.95;;;12.85;;
31382;SDS011;18014;49.228;11.102;2023-02-11T10:53:41;19.08;;;14.60;;
31382;SDS011;18014;49.228;11.102;2023-02-11T10:55:50;19.48;;;13.05;;
31382;SDS011;18014;49.228;11.102;2023-02-11T10:57:57;18.30;;;13.13;;
31382;SDS011;18014;49.228;11.102;2023-02-11T11:00:04;17.17;;;14.25;;
31382;SDS011;18014;49.228;11.102;2023-02-11T11:02:28;17.83;;;13.20;;
31382;SDS011;18014;49.228;11.102;2023-02-11T11:04:38;20.27;;;14.02;;
31382;SDS011;18014;49.228;11.102;2023-02-11T11:06:41;18.80;;;13.65;;
31382;SDS011;18014;49.228;11.102;2023-02-11T11:08:46;16.25;;;12.85;;
31382;SDS011;18014;49.228;11.102;2023-02-11T11:11:00;19.42;;;14.15;;
31382;SDS011;18014;49.228;11.102;2023-02-11T11:13:03;15.93;;;13.10;;
31382;SDS011;18014;49.228;11.102;2023-02-11T11:19:22;18.02;;;13.55;;
31382;SDS011;18014;49.228;11.102;2023-02-11T11:21:25;18.95;;;12.82;;
31382;SDS011;18014;49.228;11.102;2023-02-11T11:23:35;16.95;;;13.23;;
31382;SDS011;18014;49.228;11.102;2023-02-11T11:25:38;17.90;;;14.25;;
31382;SDS011;18014;49.228;11.102;2023-02-11T11:27:42;16.83;;;13.88;;
31382;SDS011;18014;49.228;11.102;2023-02-11T11:29:51;17.77;;;12.88;;
31382;SDS011;18014;49.228;11.102;2023-02-11T11:31:58;15.18;;;12.55;;
31382;SDS011;18014;49.228;11.102;2023-02-11T11:34:26;20.50;;;14.73;;
31382;SDS011;18014;49.228;11.102;2023-02-11T11:36:33;21.58;;;15.73;;
31382;SDS011;18014;49.228;11.102;2023-02-11T11:38:37;16.77;;;14.10;;
31382;SDS011;18014;49.228;11.102;2023-02-11T11:43:20;18.00;;;13.50;;
31382;SDS011;18014;49.228;11.102;2023-02-11T11:45:23;19.40;;;15.15;;
31382;SDS011;18014;49.228;11.102;2023-02-11T11:47:30;14.80;;;12.43;;
31382;SDS011;18014;49.228;11.102;2023-02-11T11:49:46;17.27;;;13.38;;
31382;SDS011;18014;49.228;11.102;2023-02-11T11:51:58;18.63;;;14.13;;
31382;SDS011;18014;49.228;11.102;2023-02-11T11:54:11;18.15;;;13.63;;
31382;SDS011;18014;49.228;11.102;2023-02-11T11:56:20;15.57;;;13.15;;
31382;SDS011;18014;49.228;11.102;2023-02-11T11:58:23;23.90;;;16.05;;
31382;SDS011;18014;49.228;11.102;2023-02-11T12:00:26;18.23;;;13.82;;
31382;SDS011;18014;49.228;11.102;2023-02-11T12:04:42;19.38;;;13.80;;
31382;SDS011;18014;49.228;11.102;2023-02-11T12:06:55;18.02;;;13.35;;
31382;SDS011;18014;49.228;11.102;2023-02-11T12:11:35;20.17;;;13.20;;
31382;SDS011;18014;49.228;11.102;2023-02-11T12:18:47;17.45;;;12.98;;
31382;SDS011;18014;49.228;11.102;2023-02-11T12:23:49;17.63;;;12.93;;
31382;SDS011;18014;49.228;11.102;2023-02-11T12:26:18;18.35;;;11.98;;
31382;SDS011;18014;49.228;11.102;2023-02-11T12:30:52;17.85;;;13.02;;
31382;SDS011;18014;49.228;11.102;2023-02-11T12:36:01;17.10;;;12.57;;
31382;SDS011;18014;49.228;11.102;2023-02-11T12:38:14;18.58;;;13.25;;
31382;SDS011;18014;49.228;11.102;2023-02-11T12:40:22;18.10;;;12.40;;
31382;SDS011;18014;49.228;11.102;2023-02-11T12:42:41;19.20;;;12.23;;
31382;SDS011;18014;49.228;11.102;2023-02-11T12:50:03;19.92;;;12.23;;
31382;SDS011;18014;49.228;11.102;2023-02-11T12:54:48;15.75;;;12.70;;
31382;SDS011;18014;49.228;11.102;2023-02-11T12:59:01;20.05;;;13.25;;
31382;SDS011;18014;49.228;11.102;2023-02-11T13:01:07;17.73;;;13.48;;
31382;SDS011;18014;49.228;11.102;2023-02-11T13:03:21;17.08;;;12.88;;
31382;SDS011;18014;49.228;11.102;2023-02-11T13:05:32;18.63;;;12.60;;
31382;SDS011;18014;49.228;11.102;2023-02-11T13:07:44;17.52;;;12.32;;
31382;SDS011;18014;49.228;11.102;2023-02-11T13:09:54;18.02;;;11.93;;
31382;SDS011;18014;49.228;11.102;2023-02-11T13:12:01;17.67;;;12.75;;
31382;SDS011;18014;49.228;11.102;2023-02-11T13:14:28;20.63;;;13.18;;
31382;SDS011;18014;49.228;11.102;2023-02-11T13:16:39;20.25;;;13.77;;
31382;SDS011;18014;49.228;11.102;2023-02-11T13:18:50;18.60;;;13.02;;